Time;durP1;ratioP1;P1;durP2;ratioP2;P2;SDS_P1;SDS_P2;PMS_P1;PMS_P2;Temp;Humidity;BMP_temperature;BMP_pressure;BME280_temperature;BME280_humidity;BME280_pressure;Samples;Min_cycle;Max_cycle;Signal;HPM_P1;HPM_P2
2023/08/03 00:02:37;;;;;;;8.30;1.90;;;16.20;99.90;;;;;;5072283;28;20563;-76
2023/08/03 00:05:24;;;;;;;8.00;1.65;;;16.10;99.90;;;;;;5071444;28;20102;-76
2023/08/03 00:08:10;;;;;;;8.73;2.58;;;16.10;99.90;;;;;;5071195;28;20095;-77
2023/08/03 00:10:56;;;;;;;5.43;1.80;;;16.10;99.90;;;;;;5071417;28;20428;-76
2023/08/03 00:13:42;;;;;;;12.23;3.08;;;16.10;99.90;;;;;;5072831;28;20118;-75
2023/08/03 00:16:28;;;;;;;11.90;2.03;;;16.10;99.90;;;;;;5069908;28;20052;-75
2023/08/03 00:19:14;;;;;;;9.05;1.70;;;16.10;99.90;;;;;;5055757;28;20084;-75
2023/08/03 00:22:01;;;;;;;10.02;2.20;;;16.10;99.90;;;;;;5071396;28;20488;-76
2023/08/03 00:24:48;;;;;;;6.82;2.20;;;16.00;99.90;;;;;;5069282;28;20054;-76
2023/08/03 00:27:34;;;;;;;10.88;2.10;;;16.00;99.90;;;;;;5070556;28;20116;-78
2023/08/03 00:30:20;;;;;;;8.45;2.17;;;16.10;99.90;;;;;;5071951;28;20052;-77
2023/08/03 00:33:06;;;;;;;7.20;2.33;;;16.00;99.90;;;;;;5069006;28;20080;-74
2023/08/03 00:35:52;;;;;;;6.55;2.35;;;16.00;99.90;;;;;;5071309;28;20424;-75
2023/08/03 00:38:38;;;;;;;8.75;2.38;;;16.00;99.90;;;;;;5071136;28;20045;-74
2023/08/03 00:41:24;;;;;;;7.43;1.85;;;16.00;99.90;;;;;;5070922;28;20052;-74
2023/08/03 00:44:11;;;;;;;7.18;2.30;;;16.00;99.90;;;;;;5071832;28;20041;-74
2023/08/03 00:46:57;;;;;;;10.48;2.55;;;16.00;99.90;;;;;;5070432;28;20045;-75
2023/08/03 00:49:43;;;;;;;7.85;1.95;;;16.00;99.90;;;;;;5071623;28;20063;-75
2023/08/03 00:52:29;;;;;;;8.45;2.05;;;16.00;99.90;;;;;;5069057;28;20045;-74
2023/08/03 00:55:15;;;;;;;5.28;2.17;;;16.00;99.90;;;;;;5071201;28;20052;-75
2023/08/03 00:58:02;;;;;;;5.00;2.03;;;16.00;99.90;;;;;;5071392;28;20067;-76
2023/08/03 01:00:48;;;;;;;10.55;2.28;;;16.00;99.90;;;;;;5069251;28;20052;-75
2023/08/03 01:03:35;;;;;;;8.82;2.33;;;16.00;99.90;;;;;;5070564;28;20105;-74
2023/08/03 01:06:22;;;;;;;5.57;2.03;;;16.00;99.90;;;;;;5072861;28;20447;-74
2023/08/03 01:09:09;;;;;;;6.20;2.33;;;16.00;99.90;;;;;;5070749;28;20053;-75
2023/08/03 01:11:55;;;;;;;5.28;2.10;;;16.10;99.90;;;;;;5070532;28;20048;-75
2023/08/03 01:14:42;;;;;;;5.97;1.30;;;16.00;99.90;;;;;;5071008;28;20048;-73
2023/08/03 01:17:28;;;;;;;8.65;2.00;;;16.10;99.90;;;;;;5068568;28;20400;-75
2023/08/03 01:20:18;;;;;;;8.70;2.20;;;16.10;99.90;;;;;;5070356;28;20090;-75
2023/08/03 01:23:05;;;;;;;6.75;2.20;;;16.00;99.90;;;;;;5070933;28;20459;-76
2023/08/03 01:25:51;;;;;;;6.03;1.73;;;16.10;99.90;;;;;;5070315;28;20050;-75
2023/08/03 01:28:37;;;;;;;7.43;2.20;;;16.10;99.90;;;;;;5069916;28;20567;-74
2023/08/03 01:31:23;;;;;;;7.75;2.03;;;16.10;99.90;;;;;;5070836;28;20462;-75
2023/08/03 01:34:12;;;;;;;7.72;2.13;;;16.10;99.90;;;;;;5069199;28;20063;-75
2023/08/03 01:36:59;;;;;;;6.00;2.20;;;16.10;99.90;;;;;;5068110;28;20052;-77
2023/08/03 01:39:45;;;;;;;10.40;3.45;;;16.10;99.90;;;;;;5070157;28;20088;-74
2023/08/03 01:42:31;;;;;;;5.65;1.83;;;16.10;99.90;;;;;;5070360;28;20133;-76
2023/08/03 01:45:17;;;;;;;5.85;1.90;;;16.10;99.90;;;;;;5070456;28;20094;-76
2023/08/03 01:48:04;;;;;;;6.20;2.00;;;16.10;99.90;;;;;;5070160;28;20400;-78
2023/08/03 01:50:50;;;;;;;5.07;2.10;;;16.10;99.90;;;;;;5069430;28;20052;-78
2023/08/03 01:53:36;;;;;;;4.65;2.30;;;16.10;99.90;;;;;;5067644;28;20484;-77
2023/08/03 01:56:22;;;;;;;9.63;2.65;;;16.10;99.90;;;;;;5068049;28;20060;-78
2023/08/03 01:59:08;;;;;;;4.95;2.25;;;16.10;99.90;;;;;;5070386;28;20060;-77
2023/08/03 02:01:54;;;;;;;5.38;2.00;;;16.10;99.90;;;;;;5070040;28;20166;-76
2023/08/03 02:04:40;;;;;;;7.40;2.28;;;16.10;99.90;;;;;;5069871;28;20083;-77
2023/08/03 02:08:02;;;;;;;6.50;2.30;;;16.10;99.90;;;;;;5068789;28;20041;-78
2023/08/03 02:10:48;;;;;;;4.78;2.00;;;16.10;99.90;;;;;;5036784;28;20547;-75
2023/08/03 02:13:34;;;;;;;10.10;2.63;;;16.10;99.90;;;;;;5072444;28;20047;-77
2023/08/03 02:16:20;;;;;;;7.60;1.75;;;16.10;99.90;;;;;;5090044;28;20052;-75
2023/08/03 02:19:06;;;;;;;9.10;2.25;;;16.10;99.90;;;;;;5071832;28;20048;-75
2023/08/03 02:21:52;;;;;;;6.05;2.20;;;16.10;99.90;;;;;;5090067;28;20138;-76
2023/08/03 02:24:38;;;;;;;6.93;2.00;;;16.20;99.90;;;;;;5089843;28;20630;-75
2023/08/03 02:27:25;;;;;;;5.47;2.08;;;16.10;99.90;;;;;;5089870;28;20449;-76
2023/08/03 02:30:11;;;;;;;5.28;2.25;;;16.10;99.90;;;;;;5089231;28;20044;-76
2023/08/03 02:32:57;;;;;;;6.07;2.28;;;16.10;99.90;;;;;;5071638;28;20047;-76
2023/08/03 02:35:43;;;;;;;7.47;2.15;;;16.10;99.90;;;;;;5089495;28;20487;-77
2023/08/03 02:38:29;;;;;;;5.50;2.83;;;16.10;99.90;;;;;;5089819;28;20055;-77
2023/08/03 02:41:15;;;;;;;10.88;3.08;;;16.10;99.90;;;;;;5059206;28;20059;-77
2023/08/03 02:44:01;;;;;;;5.00;2.22;;;16.10;99.90;;;;;;5058284;28;20048;-77
2023/08/03 02:46:48;;;;;;;5.57;2.17;;;16.10;99.90;;;;;;5089955;28;20606;-77
2023/08/03 02:49:34;;;;;;;6.85;2.35;;;16.20;99.90;;;;;;5076122;28;20044;-79
2023/08/03 02:52:22;;;;;;;8.48;3.08;;;16.10;99.90;;;;;;5062141;28;20123;-81
2023/08/03 02:55:09;;;;;;;5.97;2.50;;;16.10;99.90;;;;;;5089552;28;20055;-77
2023/08/03 02:57:55;;;;;;;7.82;2.15;;;16.10;99.90;;;;;;5089478;28;20047;-76
2023/08/03 03:00:41;;;;;;;6.88;2.90;;;16.10;99.90;;;;;;5090103;28;20048;-76
2023/08/03 03:03:27;;;;;;;5.55;2.55;;;16.10;99.90;;;;;;5089591;28;20059;-77
2023/08/03 03:06:13;;;;;;;8.38;3.17;;;16.10;99.90;;;;;;5089577;28;20051;-76
2023/08/03 03:08:59;;;;;;;6.47;3.25;;;16.10;99.90;;;;;;5090437;28;20040;-75
2023/08/03 03:11:45;;;;;;;10.15;4.05;;;16.10;99.90;;;;;;5074640;28;20056;-75
2023/08/03 03:14:31;;;;;;;6.18;2.42;;;16.10;99.90;;;;;;5074943;28;20059;-75
2023/08/03 03:17:17;;;;;;;5.03;2.58;;;16.10;99.90;;;;;;5093108;28;20054;-77
2023/08/03 03:20:04;;;;;;;8.38;2.70;;;16.10;99.90;;;;;;5093043;28;20071;-77
2023/08/03 03:22:50;;;;;;;8.13;3.20;;;16.10;99.90;;;;;;5092873;28;20052;-76
2023/08/03 03:25:36;;;;;;;8.25;3.47;;;16.10;99.90;;;;;;5093395;28;20130;-76
2023/08/03 03:28:22;;;;;;;10.40;3.28;;;16.10;99.90;;;;;;5061825;28;20060;-76
2023/08/03 03:31:08;;;;;;;10.43;4.05;;;16.20;99.90;;;;;;5092565;28;20126;-76
2023/08/03 03:33:54;;;;;;;7.30;4.05;;;16.10;99.90;;;;;;5092889;28;20079;-76
2023/08/03 03:36:40;;;;;;;8.45;4.18;;;16.20;99.90;;;;;;5092643;28;20051;-75
2023/08/03 03:39:26;;;;;;;11.82;4.40;;;16.20;99.90;;;;;;5093350;28;20055;-74
2023/08/03 03:42:12;;;;;;;8.13;3.28;;;16.10;99.90;;;;;;5074454;28;20048;-77
2023/08/03 03:44:58;;;;;;;7.32;4.00;;;16.10;99.90;;;;;;5092642;28;20062;-75
2023/08/03 03:47:44;;;;;;;7.45;3.97;;;16.20;99.90;;;;;;5092371;28;20052;-75
2023/08/03 03:50:31;;;;;;;9.05;4.38;;;16.10;99.90;;;;;;5093496;28;20056;-75
2023/08/03 03:53:17;;;;;;;7.15;3.80;;;16.10;99.90;;;;;;5092735;28;20422;-75
2023/08/03 03:56:03;;;;;;;8.55;4.30;;;16.10;99.90;;;;;;5074161;28;20067;-75
2023/08/03 03:58:49;;;;;;;5.03;3.17;;;16.20;99.90;;;;;;5092285;28;20048;-76
2023/08/03 04:01:35;;;;;;;6.00;2.42;;;16.10;99.90;;;;;;5092768;28;20048;-75
2023/08/03 04:04:21;;;;;;;5.45;2.10;;;16.20;99.90;;;;;;5092365;28;20174;-75
2023/08/03 04:07:07;;;;;;;6.65;1.50;;;16.10;99.90;;;;;;5074005;28;20059;-75
2023/08/03 04:09:53;;;;;;;3.85;1.33;;;16.10;99.90;;;;;;5091799;28;20044;-75
2023/08/03 04:12:39;;;;;;;5.65;1.17;;;16.10;99.90;;;;;;5092448;28;20554;-75
2023/08/03 04:15:25;;;;;;;3.60;0.80;;;16.10;99.90;;;;;;5073939;28;20051;-74
2023/08/03 04:18:12;;;;;;;5.82;0.63;;;16.20;99.90;;;;;;5074337;28;20059;-75
2023/08/03 04:20:58;;;;;;;6.07;1.10;;;16.20;99.90;;;;;;5091424;28;20048;-75
2023/08/03 04:23:44;;;;;;;4.53;0.90;;;16.20;99.90;;;;;;5073357;28;20484;-77
2023/08/03 04:26:30;;;;;;;3.15;0.50;;;16.20;99.90;;;;;;5073777;28;20063;-75
2023/08/03 04:29:16;;;;;;;3.35;0.60;;;16.20;99.90;;;;;;5074381;28;20048;-76
2023/08/03 04:32:02;;;;;;;5.55;0.68;;;16.30;99.90;;;;;;5073686;28;20044;-76
2023/08/03 04:34:48;;;;;;;1.58;0.43;;;16.30;99.90;;;;;;5073258;28;20056;-75
2023/08/03 04:37:34;;;;;;;1.00;0.40;;;16.30;99.90;;;;;;5073610;28;20090;-76
2023/08/03 04:40:20;;;;;;;1.42;0.43;;;16.30;99.90;;;;;;5091268;28;20044;-77
2023/08/03 04:43:06;;;;;;;2.40;0.40;;;16.30;99.90;;;;;;5091677;28;20097;-77
2023/08/03 04:45:52;;;;;;;2.72;0.43;;;16.20;99.90;;;;;;5091534;28;20047;-77
2023/08/03 04:48:39;;;;;;;1.30;0.30;;;16.20;99.90;;;;;;5091312;28;20048;-76
2023/08/03 04:51:25;;;;;;;1.25;0.40;;;16.20;99.90;;;;;;5091405;28;20172;-76
2023/08/03 04:54:13;;;;;;;1.55;0.30;;;16.20;99.90;;;;;;5091587;28;20090;-77
2023/08/03 04:56:59;;;;;;;3.03;0.50;;;16.20;99.90;;;;;;5076086;28;20067;-77
2023/08/03 04:59:45;;;;;;;1.92;0.40;;;16.10;99.90;;;;;;5090954;28;20499;-76
2023/08/03 05:02:31;;;;;;;1.73;0.47;;;16.10;99.90;;;;;;5076800;28;20504;-77
2023/08/03 05:05:17;;;;;;;1.95;0.30;;;16.10;99.90;;;;;;5091083;28;20051;-77
2023/08/03 05:08:03;;;;;;;0.77;0.30;;;16.10;99.90;;;;;;5090879;28;20044;-77
2023/08/03 05:10:50;;;;;;;1.58;0.43;;;16.10;99.90;;;;;;5090556;28;20055;-77
2023/08/03 05:13:36;;;;;;;3.03;0.50;;;16.00;99.90;;;;;;5090666;28;20458;-75
2023/08/03 05:16:24;;;;;;;2.15;0.32;;;16.00;99.90;;;;;;5090230;28;20109;-78
2023/08/03 05:19:10;;;;;;;2.72;0.60;;;16.00;99.90;;;;;;5090743;28;20081;-76
2023/08/03 05:21:58;;;;;;;4.00;0.55;;;16.00;99.90;;;;;;5090451;28;20446;-77
2023/08/03 05:24:44;;;;;;;3.20;0.70;;;16.00;99.90;;;;;;5090351;28;20580;-76
2023/08/03 05:27:30;;;;;;;4.75;1.13;;;16.00;99.90;;;;;;5072847;28;20048;-77
2023/08/03 05:30:16;;;;;;;5.18;0.50;;;16.00;99.90;;;;;;5072951;28;20522;-78
2023/08/03 05:33:03;;;;;;;2.35;0.68;;;16.00;99.90;;;;;;5057606;28;20059;-76
2023/08/03 05:35:49;;;;;;;6.40;1.20;;;15.90;99.90;;;;;;5073408;28;20056;-76
2023/08/03 05:38:35;;;;;;;5.15;0.80;;;16.00;99.90;;;;;;5090907;28;20079;-76
2023/08/03 05:41:23;;;;;;;4.30;0.95;;;16.00;99.90;;;;;;5090390;28;20083;-78
2023/08/03 05:44:13;;;;;;;5.07;0.85;;;16.00;99.90;;;;;;5090427;28;20085;-78
2023/08/03 05:47:01;;;;;;;5.30;0.90;;;16.10;99.90;;;;;;5089896;28;20604;-77
2023/08/03 05:49:47;;;;;;;10.35;1.15;;;16.20;99.90;;;;;;5090169;28;20052;-77
2023/08/03 05:52:33;;;;;;;4.40;1.30;;;16.40;99.90;;;;;;5090246;28;20052;-75
2023/08/03 05:55:19;;;;;;;8.00;3.05;;;16.40;99.90;;;;;;5076184;28;20044;-76
2023/08/03 05:58:08;;;;;;;6.63;1.60;;;16.50;99.90;;;;;;5089993;28;20094;-76
2023/08/03 06:00:54;;;;;;;6.28;2.58;;;16.50;99.90;;;;;;5090195;28;20048;-75
2023/08/03 06:03:43;;;;;;;5.60;1.70;;;16.60;99.90;;;;;;5089746;28;20048;-76
2023/08/03 06:06:30;;;;;;;3.53;1.25;;;16.70;99.90;;;;;;5090080;28;20059;-76
2023/08/03 06:09:19;;;;;;;4.85;1.17;;;16.80;99.90;;;;;;5090603;28;20051;-76
2023/08/03 06:12:12;;;;;;;3.65;1.10;;;17.00;99.90;;;;;;5089511;28;20102;-76
2023/08/03 06:15:01;;;;;;;3.65;0.93;;;17.10;99.90;;;;;;5075368;28;20052;-76
2023/08/03 06:17:47;;;;;;;2.58;0.73;;;17.20;99.90;;;;;;5090294;28;20075;-75
2023/08/03 06:20:34;;;;;;;4.95;0.82;;;17.40;99.90;;;;;;5089902;28;20125;-75
2023/08/03 06:23:25;;;;;;;4.80;0.93;;;17.50;99.90;;;;;;5089881;28;20136;-75
2023/08/03 06:26:13;;;;;;;2.33;0.70;;;17.60;99.90;;;;;;5090526;28;20105;-75
2023/08/03 06:29:01;;;;;;;2.92;0.75;;;17.70;99.90;;;;;;5089700;28;20051;-75
2023/08/03 06:31:49;;;;;;;1.98;0.60;;;17.80;99.90;;;;;;5090287;28;20054;-75
2023/08/03 06:34:35;;;;;;;3.38;1.10;;;17.90;99.90;;;;;;5089988;28;20108;-75
2023/08/03 06:37:24;;;;;;;5.07;0.70;;;18.10;99.90;;;;;;5071962;28;20047;-75
2023/08/03 06:40:11;;;;;;;2.60;0.60;;;18.10;99.90;;;;;;5058885;28;20407;-76
2023/08/03 06:42:57;;;;;;;2.95;0.80;;;18.10;99.90;;;;;;5090230;28;20048;-75
2023/08/03 06:45:44;;;;;;;3.00;0.65;;;18.20;99.90;;;;;;5094237;28;20146;-76
2023/08/03 06:48:32;;;;;;;4.25;0.95;;;18.20;99.90;;;;;;5093588;28;20051;-76
2023/08/03 06:51:19;;;;;;;7.82;1.42;;;18.20;99.90;;;;;;5093809;28;20140;-75
2023/08/03 06:54:05;;;;;;;5.38;1.27;;;18.30;99.90;;;;;;5078983;28;20480;-75
2023/08/03 06:56:51;;;;;;;5.10;0.90;;;18.40;99.90;;;;;;5093658;28;20051;-75
2023/08/03 06:59:38;;;;;;;3.72;1.13;;;18.50;99.90;;;;;;5093426;28;20055;-77
2023/08/03 07:02:24;;;;;;;4.05;1.10;;;18.70;99.90;;;;;;5075219;28;20121;-76
2023/08/03 07:05:11;;;;;;;4.93;1.20;;;18.80;99.90;;;;;;5093461;28;20791;-77
2023/08/03 07:07:57;;;;;;;12.10;2.88;;;19.00;99.90;;;;;;5093835;28;20047;-76
2023/08/03 07:10:43;;;;;;;6.25;1.27;;;19.00;99.90;;;;;;5093000;28;20187;-75
2023/08/03 07:13:29;;;;;;;4.65;1.30;;;19.10;99.90;;;;;;5078654;28;20048;-76
2023/08/03 07:16:15;;;;;;;6.75;1.27;;;19.20;99.90;;;;;;5092793;28;20051;-75
2023/08/03 07:19:01;;;;;;;7.63;1.20;;;19.20;99.90;;;;;;5093282;28;20052;-76
2023/08/03 07:21:48;;;;;;;2.33;0.85;;;19.40;99.90;;;;;;5093881;28;20059;-75
2023/08/03 07:24:34;;;;;;;6.47;1.33;;;19.60;99.90;;;;;;5093246;28;20134;-76
2023/08/03 07:27:20;;;;;;;7.50;1.23;;;19.70;99.90;;;;;;5092694;28;20518;-76
2023/08/03 07:30:10;;;;;;;5.55;1.20;;;19.90;99.90;;;;;;5075107;28;20113;-75
2023/08/03 07:32:57;;;;;;;6.13;1.10;;;20.00;99.90;;;;;;5078322;28;20048;-75
2023/08/03 07:35:43;;;;;;;7.45;1.15;;;19.90;99.90;;;;;;5092930;28;20138;-75
2023/08/03 07:38:29;;;;;;;10.40;1.67;;;19.90;99.90;;;;;;5092771;28;20048;-76
2023/08/03 07:41:16;;;;;;;6.95;1.33;;;20.00;99.90;;;;;;5092711;28;20048;-77
2023/08/03 07:44:02;;;;;;;8.23;1.60;;;20.10;99.90;;;;;;5095096;27;20047;-76
2023/08/03 07:46:49;;;;;;;7.78;1.60;;;20.20;99.90;;;;;;5074179;28;20048;-76
2023/08/03 07:49:35;;;;;;;12.20;2.03;;;20.10;99.90;;;;;;5092420;28;20094;-77
2023/08/03 07:52:21;;;;;;;5.97;1.27;;;19.90;99.90;;;;;;5074777;28;20478;-76
2023/08/03 07:55:08;;;;;;;5.53;1.40;;;19.70;99.90;;;;;;5074080;28;20055;-76
2023/08/03 07:57:54;;;;;;;10.35;1.80;;;19.70;99.90;;;;;;5093614;28;20046;-77
2023/08/03 08:00:40;;;;;;;10.55;2.15;;;19.80;99.90;;;;;;5091923;28;20502;-76
2023/08/03 08:03:26;;;;;;;11.32;2.50;;;19.70;99.90;;;;;;5073961;28;20521;-77
2023/08/03 08:06:16;;;;;;;13.32;2.70;;;19.50;99.90;;;;;;5074699;28;20435;-76
2023/08/03 08:09:02;;;;;;;12.20;2.00;;;19.70;99.90;;;;;;5091837;28;20469;-75
2023/08/03 08:11:48;;;;;;;13.88;3.33;;;20.10;99.90;;;;;;5091504;28;20059;-76
2023/08/03 08:14:34;;;;;;;8.63;2.30;;;20.40;99.90;;;;;;5073407;28;20090;-77
2023/08/03 08:17:20;;;;;;;14.02;2.75;;;20.70;99.90;;;;;;5092077;28;20051;-78
2023/08/03 08:20:07;;;;;;;8.32;2.40;;;20.90;99.90;;;;;;5077706;28;20521;-77
2023/08/03 08:22:53;;;;;;;10.13;2.10;;;20.90;99.90;;;;;;5092683;28;20059;-76
2023/08/03 08:25:39;;;;;;;9.27;2.40;;;20.90;99.90;;;;;;5074386;28;20548;-80
2023/08/03 08:28:29;;;;;;;12.27;2.67;;;21.10;99.90;;;;;;5077571;28;20052;-76
2023/08/03 08:31:15;;;;;;;12.25;2.72;;;21.10;99.90;;;;;;5091739;28;20051;-76
2023/08/03 08:34:01;;;;;;;13.35;2.40;;;21.00;99.90;;;;;;5091765;28;20101;-78
2023/08/03 08:36:51;;;;;;;6.53;2.20;;;20.90;99.90;;;;;;5091676;28;20044;-76
2023/08/03 08:39:37;;;;;;;12.27;2.22;;;20.80;99.90;;;;;;5092127;28;20131;-76
2023/08/03 08:42:23;;;;;;;12.45;2.70;;;20.90;99.90;;;;;;5092374;28;20419;-76
2023/08/03 08:45:09;;;;;;;11.32;2.22;;;21.30;99.90;;;;;;5091194;28;20101;-76
2023/08/03 08:47:56;;;;;;;8.57;2.42;;;21.20;99.90;;;;;;5072994;28;20572;-77
2023/08/03 08:50:43;;;;;;;7.85;1.98;;;21.20;99.90;;;;;;5073403;28;20488;-77
2023/08/03 08:53:29;;;;;;;13.25;2.30;;;21.30;99.90;;;;;;5091191;28;20048;-76
2023/08/03 08:56:15;;;;;;;12.48;2.72;;;21.30;99.90;;;;;;5091106;28;20052;-76
2023/08/03 08:59:03;;;;;;;17.73;2.88;;;21.40;99.90;;;;;;5059708;28;20091;-76
2023/08/03 09:01:53;;;;;;;12.20;2.50;;;21.40;99.90;;;;;;5092621;28;20047;-76
2023/08/03 09:04:39;;;;;;;12.93;2.85;;;21.70;99.90;;;;;;5073666;28;20048;-77
2023/08/03 09:07:26;;;;;;;9.45;2.33;;;21.90;99.90;;;;;;5090991;28;20109;-76
2023/08/03 09:10:12;;;;;;;6.95;1.95;;;22.00;99.90;;;;;;5090352;28;20052;-78
2023/08/03 09:12:59;;;;;;;16.33;2.15;;;22.20;99.90;;;;;;5091048;28;20048;-77
2023/08/03 09:15:45;;;;;;;17.92;2.00;;;22.10;99.90;;;;;;5076345;28;20105;-77
2023/08/03 09:18:32;;;;;;;8.93;2.22;;;22.30;99.90;;;;;;5090607;28;20044;-77
2023/08/03 09:21:19;;;;;;;8.48;1.60;;;22.40;99.90;;;;;;5091413;28;20483;-77
2023/08/03 09:24:17;;;;;;;10.55;2.60;;;22.50;99.90;;;;;;5090438;28;20503;-76
2023/08/03 09:27:04;;;;;;;8.50;1.70;;;22.30;99.90;;;;;;5090683;28;20143;-76
2023/08/03 09:29:50;;;;;;;10.00;2.45;;;22.10;99.90;;;;;;5092655;27;20106;-75
2023/08/03 09:32:37;;;;;;;9.45;1.60;;;22.30;99.90;;;;;;5090509;28;20044;-77
2023/08/03 09:35:25;;;;;;;7.97;1.70;;;22.60;99.90;;;;;;5072504;28;20052;-78
2023/08/03 09:38:24;;;;;;;10.00;1.95;;;22.70;99.90;;;;;;5059264;28;20568;-76
2023/08/03 09:41:12;;;;;;;7.13;1.52;;;22.70;99.90;;;;;;5090523;28;20048;-77
2023/08/03 09:43:59;;;;;;;8.27;1.88;;;22.70;99.90;;;;;;5092361;28;20578;-78
2023/08/03 09:46:48;;;;;;;8.52;1.90;;;22.40;99.90;;;;;;5090244;28;20463;-78
2023/08/03 09:49:34;;;;;;;5.50;1.23;;;22.50;99.90;;;;;;5090846;28;20538;-78
2023/08/03 09:52:25;;;;;;;7.80;1.55;;;22.70;99.90;;;;;;5090249;28;20480;-79
2023/08/03 09:55:18;;;;;;;7.75;1.70;;;22.80;99.90;;;;;;5071467;28;20059;-76
2023/08/03 09:58:15;;;;;;;8.40;1.77;;;23.00;99.90;;;;;;5089869;28;20058;-77
2023/08/03 10:01:04;;;;;;;8.98;1.70;;;23.10;99.90;;;;;;5071932;28;20408;-77
2023/08/03 10:03:54;;;;;;;7.03;1.60;;;23.10;99.90;;;;;;5089852;28;20555;-77
2023/08/03 10:06:43;;;;;;;8.82;1.35;;;23.40;99.90;;;;;;5090064;28;20040;-77
2023/08/03 10:09:42;;;;;;;7.93;1.20;;;23.40;99.90;;;;;;5075708;28;20055;-77
2023/08/03 10:12:36;;;;;;;7.00;1.20;;;23.50;99.90;;;;;;5069760;28;20109;-78
2023/08/03 10:15:24;;;;;;;4.03;1.00;;;23.70;99.90;;;;;;5052374;28;20048;-76
2023/08/03 10:18:11;;;;;;;5.13;1.27;;;23.70;99.90;;;;;;5054004;28;20131;-77
2023/08/03 10:20:58;;;;;;;5.63;1.48;;;23.70;99.90;;;;;;5077150;28;20052;-77
2023/08/03 10:24:09;;;;;;;6.32;1.50;;;23.80;99.90;;;;;;5062483;28;20048;-78
2023/08/03 10:27:18;;;;;;;5.65;1.35;;;24.00;99.90;;;;;;5076488;28;20052;-76
2023/08/03 10:30:04;;;;;;;3.35;0.90;;;23.70;99.90;;;;;;5076854;28;20040;-77
2023/08/03 10:32:51;;;;;;;4.70;1.20;;;23.60;99.90;;;;;;5059134;28;20400;-76
2023/08/03 10:35:38;;;;;;;4.90;1.10;;;23.70;99.90;;;;;;5075495;28;20051;-76
2023/08/03 10:38:28;;;;;;;6.00;1.40;;;23.80;99.90;;;;;;5076954;28;20048;-77
2023/08/03 10:41:21;;;;;;;6.15;0.98;;;23.80;99.90;;;;;;5058833;28;20045;-77
2023/08/03 10:44:13;;;;;;;8.20;1.30;;;23.90;99.90;;;;;;5077606;28;20390;-76
2023/08/03 10:46:59;;;;;;;5.47;1.02;;;24.10;99.90;;;;;;5059219;28;20080;-76
2023/08/03 10:49:49;;;;;;;5.22;1.05;;;24.40;99.90;;;;;;5076792;28;20063;-76
2023/08/03 10:52:35;;;;;;;5.50;1.02;;;24.60;99.90;;;;;;5075037;28;20060;-76
2023/08/03 10:55:26;;;;;;;6.25;1.20;;;24.70;99.90;;;;;;5077328;28;20087;-78
2023/08/03 10:58:12;;;;;;;5.10;0.90;;;24.70;99.90;;;;;;5077760;28;20140;-78
2023/08/03 11:00:58;;;;;;;3.75;1.20;;;24.80;99.90;;;;;;5075756;28;20057;-78
2023/08/03 11:03:45;;;;;;;6.18;1.35;;;24.90;99.90;;;;;;5058748;28;20052;-79
2023/08/03 11:06:31;;;;;;;4.80;1.30;;;25.10;99.90;;;;;;5076376;28;20043;-79
2023/08/03 11:09:18;;;;;;;6.03;1.65;;;25.10;99.90;;;;;;5061458;28;20155;-77
2023/08/03 11:12:06;;;;;;;6.85;1.95;;;25.20;99.90;;;;;;5074045;28;20412;-79
2023/08/03 11:14:54;;;;;;;9.20;1.90;;;25.40;99.90;;;;;;5074614;28;20060;-77
2023/08/03 11:17:40;;;;;;;5.22;1.52;;;25.20;99.90;;;;;;5077964;28;20098;-78
2023/08/03 11:20:26;;;;;;;5.55;1.55;;;25.30;99.90;;;;;;5075992;28;20045;-78
2023/08/03 11:23:13;;;;;;;7.53;1.85;;;25.20;99.90;;;;;;5074250;28;20048;-77
2023/08/03 11:25:59;;;;;;;10.02;1.90;;;25.30;99.90;;;;;;5073975;28;20139;-79
2023/08/03 11:28:45;;;;;;;7.45;2.25;;;25.60;99.90;;;;;;5059721;28;20064;-77
2023/08/03 11:31:32;;;;;;;7.45;1.20;;;25.20;99.90;;;;;;5071631;28;20059;-79
2023/08/03 11:34:18;;;;;;;8.38;1.88;;;24.80;99.90;;;;;;5073091;28;20139;-78
2023/08/03 11:37:05;;;;;;;11.90;1.92;;;24.30;99.90;;;;;;5073204;28;20049;-79
2023/08/03 11:39:51;;;;;;;10.55;1.63;;;23.80;99.90;;;;;;5073201;28;20048;-77
2023/08/03 11:42:39;;;;;;;9.48;1.70;;;23.30;99.90;;;;;;5071910;28;20086;-78
2023/08/03 11:45:25;;;;;;;9.82;2.78;;;23.00;99.90;;;;;;5072840;28;20048;-77
2023/08/03 11:48:11;;;;;;;10.13;1.38;;;22.70;99.90;;;;;;5072210;28;20167;-78
2023/08/03 11:51:01;;;;;;;15.75;3.00;;;22.60;99.90;;;;;;5073394;28;20092;-78
2023/08/03 11:53:47;;;;;;;14.70;1.33;;;22.50;99.90;;;;;;5071939;28;20475;-78
2023/08/03 11:56:34;;;;;;;19.52;2.00;;;22.60;99.90;;;;;;5072147;28;20084;-79
2023/08/03 11:59:20;;;;;;;4.55;1.00;;;22.70;99.90;;;;;;5073187;28;20044;-77
2023/08/03 12:02:07;;;;;;;10.60;2.15;;;22.70;99.90;;;;;;5072390;28;20131;-77
2023/08/03 12:04:53;;;;;;;9.13;1.70;;;22.70;99.90;;;;;;5070048;28;20067;-78
2023/08/03 12:07:40;;;;;;;5.95;1.75;;;22.70;99.90;;;;;;5069993;28;20056;-77
2023/08/03 12:10:26;;;;;;;8.43;1.60;;;22.60;99.90;;;;;;5070925;28;20079;-76
2023/08/03 12:13:12;;;;;;;8.95;1.80;;;22.40;99.90;;;;;;5071863;28;20407;-78
2023/08/03 12:15:58;;;;;;;15.93;2.22;;;22.20;99.90;;;;;;5072714;28;20096;-78
2023/08/03 12:18:44;;;;;;;12.25;2.28;;;22.00;99.90;;;;;;5073112;28;20044;-76
2023/08/03 12:21:30;;;;;;;8.10;2.50;;;21.80;99.90;;;;;;5071639;28;20056;-76
2023/08/03 12:24:17;;;;;;;11.65;2.45;;;21.60;99.90;;;;;;5071513;28;20456;-76
2023/08/03 12:27:03;;;;;;;20.90;3.40;;;21.50;99.90;;;;;;5071897;28;20071;-77
2023/08/03 12:29:49;;;;;;;9.75;2.75;;;21.60;99.90;;;;;;5069837;28;20055;-77
2023/08/03 12:32:35;;;;;;;17.83;3.38;;;21.60;99.90;;;;;;5069975;28;20071;-76
2023/08/03 12:35:21;;;;;;;11.00;2.25;;;21.90;99.90;;;;;;5071363;28;20052;-77
2023/08/03 12:38:07;;;;;;;11.93;2.88;;;22.40;99.90;;;;;;5069721;28;20052;-76
2023/08/03 12:40:54;;;;;;;11.80;3.17;;;22.40;99.90;;;;;;5070917;28;20175;-77
2023/08/03 12:43:40;;;;;;;12.35;2.97;;;22.60;99.90;;;;;;5070997;28;20064;-78
2023/08/03 12:46:26;;;;;;;13.52;2.85;;;22.40;99.90;;;;;;5071085;28;20512;-76
2023/08/03 12:49:12;;;;;;;13.65;3.33;;;22.30;99.90;;;;;;5070330;28;20053;-76
2023/08/03 12:51:58;;;;;;;15.95;2.75;;;22.40;99.90;;;;;;5071018;28;20049;-76
2023/08/03 12:54:44;;;;;;;16.48;3.30;;;22.70;99.90;;;;;;5069659;28;20060;-77
2023/08/03 12:57:30;;;;;;;10.15;2.72;;;22.90;99.90;;;;;;5068913;28;20052;-76
2023/08/03 13:00:17;;;;;;;12.38;2.90;;;23.10;99.90;;;;;;5070925;28;20141;-78
2023/08/03 13:03:04;;;;;;;12.02;3.15;;;22.80;99.90;;;;;;5069615;28;20056;-77
2023/08/03 13:05:50;;;;;;;14.00;3.03;;;22.30;99.90;;;;;;5071204;28;20135;-76
2023/08/03 13:08:36;;;;;;;13.68;3.67;;;22.20;99.90;;;;;;5070395;28;20150;-77
2023/08/03 13:11:22;;;;;;;12.00;3.60;;;21.90;99.90;;;;;;5070183;28;20410;-79
2023/08/03 13:14:08;;;;;;;13.65;3.60;;;21.60;99.90;;;;;;5070620;28;20121;-78
2023/08/03 13:16:54;;;;;;;15.43;3.92;;;21.50;99.90;;;;;;5055537;28;20056;-77
2023/08/03 13:19:40;;;;;;;16.13;4.70;;;21.40;99.90;;;;;;5069115;28;20054;-77
2023/08/03 13:22:26;;;;;;;20.00;3.35;;;21.30;99.90;;;;;;5070719;28;20050;-76
2023/08/03 13:25:13;;;;;;;17.23;3.67;;;21.10;99.90;;;;;;5070145;28;20552;-77
2023/08/03 13:28:02;;;;;;;15.73;4.50;;;21.00;99.90;;;;;;5070776;28;20053;-77
2023/08/03 13:30:48;;;;;;;20.27;4.45;;;21.00;99.90;;;;;;5070571;28;20056;-77
2023/08/03 13:33:34;;;;;;;11.52;3.53;;;20.90;99.90;;;;;;5068336;28;20052;-77
2023/08/03 13:36:21;;;;;;;19.92;4.15;;;20.80;99.90;;;;;;5042183;28;20142;-77
2023/08/03 13:39:07;;;;;;;13.85;4.00;;;20.80;99.90;;;;;;5070681;28;20067;-76
2023/08/03 13:41:53;;;;;;;18.05;3.78;;;20.70;99.90;;;;;;5069983;28;20053;-76
2023/08/03 13:44:39;;;;;;;18.30;4.28;;;20.70;99.90;;;;;;5069956;28;20109;-75
2023/08/03 13:47:25;;;;;;;16.30;4.03;;;20.70;99.90;;;;;;5070755;28;20045;-76
2023/08/03 13:50:11;;;;;;;16.63;3.83;;;20.60;99.90;;;;;;5067641;28;20045;-77
2023/08/03 13:52:57;;;;;;;17.08;3.70;;;20.60;99.90;;;;;;5067288;28;20040;-77
2023/08/03 13:55:43;;;;;;;14.70;3.65;;;20.50;99.90;;;;;;5069784;28;20099;-77
2023/08/03 13:58:29;;;;;;;14.63;4.28;;;20.60;99.90;;;;;;5067756;28;20053;-77
2023/08/03 14:01:15;;;;;;;22.75;4.57;;;20.60;99.90;;;;;;5054605;28;20060;-77
2023/08/03 14:04:01;;;;;;;16.02;4.30;;;20.70;99.90;;;;;;5069982;28;20125;-77
2023/08/03 14:06:48;;;;;;;21.77;5.03;;;20.80;99.90;;;;;;5070563;28;20508;-76
2023/08/03 14:09:34;;;;;;;13.40;3.65;;;20.90;99.90;;;;;;5070408;28;20048;-78
2023/08/03 14:12:20;;;;;;;19.67;5.40;;;20.90;99.90;;;;;;5069630;28;20052;-78
2023/08/03 14:15:06;;;;;;;14.95;4.38;;;21.00;99.90;;;;;;5069707;28;20048;-76
2023/08/03 14:17:52;;;;;;;13.27;4.13;;;21.00;99.90;;;;;;5070006;28;20053;-76
2023/08/03 14:20:38;;;;;;;22.90;4.78;;;21.00;99.90;;;;;;5067959;28;20519;-77
2023/08/03 14:23:24;;;;;;;17.70;4.55;;;21.10;99.90;;;;;;5070023;28;20041;-78
2023/08/03 14:26:10;;;;;;;19.75;3.97;;;21.00;99.90;;;;;;5069743;28;20135;-76